Time;durP1;ratioP1;P1;durP2;ratioP2;P2;SDS_P1;SDS_P2;PMS_P1;PMS_P2;Temp;Humidity;BMP_temperature;BMP_pressure;BME280_temperature;BME280_humidity;BME280_pressure;Samples;Min_cycle;Max_cycle;Signal;HPM_P1;HPM_P2
2022/04/08 00:00:44;;;;;;;7.93;1.52;;;5.20;99.90;;;;;;4918864;29;20075;-69
2022/04/08 00:03:10;;;;;;;12.38;1.58;;;5.20;99.90;;;;;;4919053;29;20404;-69
2022/04/08 00:05:35;;;;;;;10.77;1.30;;;5.50;99.90;;;;;;4919178;29;20048;-70
2022/04/08 00:08:01;;;;;;;8.75;1.55;;;5.20;99.90;;;;;;4886014;29;20059;-70
2022/04/08 00:10:27;;;;;;;8.82;1.40;;;5.20;99.90;;;;;;4901744;29;20067;-70
2022/04/08 00:12:53;;;;;;;11.68;1.30;;;5.20;99.90;;;;;;4918886;29;20048;-70
2022/04/08 00:15:19;;;;;;;10.02;2.30;;;5.20;99.90;;;;;;4919128;29;20080;-70
2022/04/08 00:17:45;;;;;;;6.95;1.10;;;5.20;99.90;;;;;;4918577;29;20506;-70
2022/04/08 00:20:11;;;;;;;11.95;1.40;;;5.20;99.90;;;;;;4886506;29;20143;-79
2022/04/08 00:22:41;;;;;;;8.32;1.23;;;5.20;99.90;;;;;;4918774;29;20139;-80
2022/04/08 00:25:08;;;;;;;7.13;1.30;;;5.20;99.90;;;;;;4918722;29;20097;-80
2022/04/08 00:27:34;;;;;;;8.57;1.90;;;5.30;99.90;;;;;;4918617;29;20062;-80
2022/04/08 00:30:00;;;;;;;10.25;1.27;;;5.30;99.90;;;;;;4901932;29;20051;-78
2022/04/08 00:32:27;;;;;;;7.70;1.20;;;5.30;99.90;;;;;;4901546;29;20518;-80
2022/04/08 00:34:53;;;;;;;6.18;1.20;;;5.30;99.90;;;;;;4901741;29;20052;-69
2022/04/08 00:37:18;;;;;;;7.38;1.55;;;5.30;99.90;;;;;;4918589;29;20519;-80
2022/04/08 00:39:45;;;;;;;3.90;1.00;;;5.30;99.90;;;;;;4901474;29;20048;-76
2022/04/08 00:42:14;;;;;;;7.85;1.55;;;5.20;99.90;;;;;;4918276;29;20051;-76
2022/04/08 00:44:39;;;;;;;6.30;1.10;;;5.20;99.90;;;;;;4918160;29;20044;-78
2022/04/08 00:47:05;;;;;;;4.40;1.40;;;5.20;99.90;;;;;;4901629;29;20054;-81
2022/04/08 00:49:36;;;;;;;6.47;1.40;;;5.20;99.90;;;;;;4917653;29;20492;-70
2022/04/08 00:52:03;;;;;;;6.15;1.38;;;5.10;99.90;;;;;;4918261;29;20399;-70
2022/04/08 00:54:32;;;;;;;10.02;1.23;;;5.10;99.90;;;;;;4918339;29;20460;-81
2022/04/08 00:56:58;;;;;;;6.07;1.70;;;5.10;99.90;;;;;;4918217;29;20135;-80
2022/04/08 00:59:25;;;;;;;4.28;1.30;;;5.00;99.90;;;;;;4901186;29;20056;-68
2022/04/08 01:01:51;;;;;;;9.50;1.15;;;5.00;99.90;;;;;;4918265;29;20055;-70
2022/04/08 01:04:17;;;;;;;6.78;1.30;;;5.00;99.90;;;;;;4900530;29;20047;-81
2022/04/08 01:06:44;;;;;;;5.85;1.20;;;4.90;99.90;;;;;;4918031;29;20048;-80
2022/04/08 01:09:10;;;;;;;8.52;1.20;;;5.10;99.90;;;;;;4918031;29;20044;-69
2022/04/08 01:11:40;;;;;;;5.82;1.10;;;4.90;99.90;;;;;;4900872;29;20048;-69
2022/04/08 01:14:14;;;;;;;3.75;0.88;;;5.20;99.90;;;;;;4918071;29;20407;-69
2022/04/08 01:16:41;;;;;;;5.35;0.73;;;4.80;99.90;;;;;;4918066;29;20040;-68
2022/04/08 01:19:07;;;;;;;4.88;0.90;;;4.70;99.90;;;;;;4900505;29;20106;-70
2022/04/08 01:21:33;;;;;;;4.28;0.98;;;4.60;99.90;;;;;;4917090;29;20453;-83
2022/04/08 01:24:00;;;;;;;4.10;0.80;;;4.50;99.90;;;;;;4917668;29;20507;-82
2022/04/08 01:26:26;;;;;;;3.28;0.77;;;4.50;99.90;;;;;;4900783;29;20044;-70
2022/04/08 01:28:53;;;;;;;2.08;0.70;;;4.40;99.90;;;;;;4917958;29;20048;-71
2022/04/08 01:31:19;;;;;;;7.22;1.20;;;4.40;99.90;;;;;;4917724;29;20050;-75
2022/04/08 01:33:45;;;;;;;6.15;1.40;;;5.10;99.90;;;;;;4917602;29;20481;-68
2022/04/08 01:36:11;;;;;;;6.68;1.40;;;4.30;99.90;;;;;;4917091;29;20051;-76
2022/04/08 01:38:37;;;;;;;9.88;1.83;;;4.30;99.90;;;;;;4917352;29;20084;-70
2022/04/08 01:41:03;;;;;;;4.47;1.17;;;4.30;99.90;;;;;;4917271;29;20119;-70
2022/04/08 01:43:28;;;;;;;6.93;1.30;;;4.90;99.90;;;;;;4917437;29;20044;-70
2022/04/08 01:45:54;;;;;;;3.83;1.55;;;4.50;99.90;;;;;;4917215;29;20048;-70
2022/04/08 01:48:20;;;;;;;6.00;1.50;;;4.10;99.90;;;;;;4917537;29;20044;-69
2022/04/08 01:50:45;;;;;;;5.22;1.48;;;4.00;99.90;;;;;;4917390;29;20048;-69
2022/04/08 01:53:13;;;;;;;7.85;1.40;;;4.00;99.90;;;;;;4916617;29;20056;-69
2022/04/08 01:55:39;;;;;;;8.60;1.45;;;3.90;99.90;;;;;;4916954;29;20409;-71
2022/04/08 01:58:06;;;;;;;5.40;1.35;;;3.90;99.90;;;;;;4917287;29;20475;-70
2022/04/08 02:00:32;;;;;;;7.35;1.42;;;3.80;99.90;;;;;;4916831;29;20044;-70
2022/04/08 02:02:58;;;;;;;7.47;1.65;;;3.80;99.90;;;;;;4900067;29;20060;-72
2022/04/08 02:05:24;;;;;;;7.18;1.10;;;3.80;99.90;;;;;;4917208;29;20044;-76
2022/04/08 02:07:53;;;;;;;14.65;1.80;;;3.90;99.90;;;;;;4916931;29;20124;-70
2022/04/08 02:10:19;;;;;;;5.35;0.93;;;3.70;99.90;;;;;;4899460;29;20100;-81
2022/04/08 02:12:44;;;;;;;10.95;1.40;;;3.70;99.90;;;;;;4916883;29;20059;-80
2022/04/08 02:15:11;;;;;;;9.85;1.92;;;3.70;99.90;;;;;;4915961;29;20423;-81
2022/04/08 02:17:36;;;;;;;9.27;1.90;;;3.70;99.90;;;;;;4916910;29;20535;-70
2022/04/08 02:20:04;;;;;;;5.88;1.38;;;4.40;99.90;;;;;;4899939;29;20079;-81
2022/04/08 02:22:30;;;;;;;6.10;1.77;;;3.70;99.90;;;;;;4916600;29;20111;-79
2022/04/08 02:24:57;;;;;;;6.93;1.10;;;3.80;99.90;;;;;;4916212;29;20127;-70
2022/04/08 02:27:26;;;;;;;8.23;1.20;;;3.70;99.90;;;;;;4916731;29;20444;-71
2022/04/08 02:29:52;;;;;;;7.07;1.30;;;3.70;99.90;;;;;;4916666;29;20056;-79
2022/04/08 02:32:18;;;;;;;12.65;1.85;;;3.70;99.90;;;;;;4917016;29;20083;-71
2022/04/08 02:34:44;;;;;;;5.13;1.15;;;3.70;99.90;;;;;;4899886;29;20048;-75
2022/04/08 02:37:09;;;;;;;6.20;1.40;;;3.60;99.90;;;;;;4916602;29;20598;-80
2022/04/08 02:39:35;;;;;;;5.63;1.00;;;3.60;99.90;;;;;;4899532;29;20055;-73
2022/04/08 02:42:01;;;;;;;6.45;1.10;;;3.60;99.90;;;;;;4915738;29;20123;-72
2022/04/08 02:44:30;;;;;;;4.85;1.20;;;3.60;99.90;;;;;;4916378;29;20048;-78
2022/04/08 02:46:57;;;;;;;4.85;1.10;;;3.50;99.90;;;;;;4916449;29;20040;-77
2022/04/08 02:49:22;;;;;;;5.10;1.33;;;3.50;99.90;;;;;;4899299;29;20099;-71
2022/04/08 02:51:48;;;;;;;8.95;1.30;;;3.50;99.90;;;;;;4915370;29;20345;-70
2022/04/08 02:54:15;;;;;;;7.68;1.38;;;3.50;99.90;;;;;;4899505;29;20134;-79
2022/04/08 02:56:41;;;;;;;7.55;1.10;;;4.10;99.90;;;;;;4915631;29;20071;-78
2022/04/08 02:59:07;;;;;;;8.27;1.60;;;3.50;99.90;;;;;;4899120;29;20121;-70
2022/04/08 03:01:33;;;;;;;6.18;1.15;;;3.50;99.90;;;;;;4916349;29;20115;-72
2022/04/08 03:03:59;;;;;;;8.77;1.33;;;3.60;99.90;;;;;;4899332;29;20051;-80
2022/04/08 03:06:26;;;;;;;3.33;1.15;;;3.60;99.90;;;;;;4916398;29;20056;-70
2022/04/08 03:08:52;;;;;;;5.32;1.63;;;3.40;99.90;;;;;;4916438;29;20445;-72
2022/04/08 03:11:18;;;;;;;4.43;1.10;;;3.40;99.90;;;;;;4916152;29;20134;-70
2022/04/08 03:13:44;;;;;;;5.97;1.10;;;3.30;99.90;;;;;;4918672;29;20086;-68
2022/04/08 03:16:10;;;;;;;8.65;1.40;;;3.20;99.90;;;;;;4902772;29;20091;-70
2022/04/08 03:18:35;;;;;;;3.17;0.90;;;3.10;99.90;;;;;;4920083;29;20048;-68
2022/04/08 03:21:01;;;;;;;2.85;1.10;;;3.10;99.90;;;;;;4920212;29;20140;-69
2022/04/08 03:23:27;;;;;;;3.80;1.10;;;3.10;99.90;;;;;;4919658;29;20523;-70
2022/04/08 03:25:52;;;;;;;4.93;1.10;;;3.10;99.90;;;;;;4919757;29;20062;-69
2022/04/08 03:28:18;;;;;;;6.35;1.10;;;3.10;99.90;;;;;;4919359;29;20079;-67
2022/04/08 03:30:44;;;;;;;6.72;1.75;;;3.10;99.90;;;;;;4919770;29;20480;-68
2022/04/08 03:33:09;;;;;;;4.95;1.17;;;3.10;99.90;;;;;;4920079;29;20117;-70
2022/04/08 03:35:35;;;;;;;8.95;1.60;;;3.10;99.90;;;;;;4919756;29;20100;-68
2022/04/08 03:38:01;;;;;;;8.88;1.35;;;3.50;99.90;;;;;;4919751;29;20404;-69
2022/04/08 03:40:26;;;;;;;6.88;1.30;;;3.00;99.90;;;;;;4919485;29;20103;-69
2022/04/08 03:42:52;;;;;;;3.78;0.93;;;2.90;99.90;;;;;;4919420;29;20511;-69
2022/04/08 03:45:17;;;;;;;7.80;2.00;;;2.90;99.90;;;;;;4919189;29;20075;-69
2022/04/08 03:47:43;;;;;;;5.00;0.90;;;2.80;99.90;;;;;;4919531;29;20040;-69
2022/04/08 03:50:09;;;;;;;5.80;1.40;;;2.70;99.90;;;;;;4919348;29;20055;-69
2022/04/08 03:52:35;;;;;;;6.20;1.65;;;2.70;99.90;;;;;;4919325;29;20056;-71
2022/04/08 03:55:01;;;;;;;4.90;1.40;;;2.70;99.90;;;;;;4902604;29;20040;-74
2022/04/08 03:57:27;;;;;;;3.22;0.88;;;2.60;99.90;;;;;;4919271;29;20123;-80
2022/04/08 03:59:53;;;;;;;9.13;1.25;;;2.60;99.90;;;;;;4917683;29;20500;-78
2022/04/08 04:02:20;;;;;;;5.85;0.85;;;2.60;99.90;;;;;;4919123;29;20044;-80
2022/04/08 04:04:45;;;;;;;10.32;2.17;;;2.70;99.90;;;;;;4919388;29;20048;-80
2022/04/08 04:07:11;;;;;;;3.40;1.00;;;2.80;99.90;;;;;;4919054;29;20063;-76
2022/04/08 04:09:37;;;;;;;6.55;1.30;;;2.80;99.90;;;;;;4902002;29;20047;-78
2022/04/08 04:12:03;;;;;;;2.78;0.90;;;2.80;99.90;;;;;;4919082;29;20132;-76
2022/04/08 04:14:29;;;;;;;2.90;0.70;;;2.80;99.90;;;;;;4918819;29;20051;-74
2022/04/08 04:16:55;;;;;;;3.13;0.93;;;2.70;99.90;;;;;;4918470;29;20051;-73
2022/04/08 04:19:20;;;;;;;3.90;1.20;;;2.70;99.90;;;;;;4918983;29;20047;-75
2022/04/08 04:21:50;;;;;;;9.18;1.08;;;2.60;99.90;;;;;;4900904;29;20278;-75
2022/04/08 04:24:15;;;;;;;5.03;1.00;;;2.60;99.90;;;;;;4917404;29;20075;-74
2022/04/08 04:26:41;;;;;;;3.63;0.98;;;2.60;99.90;;;;;;4918865;29;20493;-79
2022/04/08 04:29:07;;;;;;;8.07;1.30;;;3.00;99.90;;;;;;4918642;29;20055;-80
2022/04/08 04:31:33;;;;;;;5.53;1.23;;;2.80;99.90;;;;;;4918680;29;20103;-70
2022/04/08 04:33:58;;;;;;;4.78;1.30;;;2.90;99.90;;;;;;4917977;29;20036;-70
2022/04/08 04:36:24;;;;;;;3.03;0.77;;;2.90;99.90;;;;;;4918684;29;20056;-72
2022/04/08 04:38:50;;;;;;;3.47;1.02;;;2.90;99.90;;;;;;4901735;29;20124;-83
2022/04/08 04:41:17;;;;;;;10.55;2.22;;;2.90;99.90;;;;;;4917058;29;20055;-82
2022/04/08 04:43:43;;;;;;;2.35;0.90;;;2.90;99.90;;;;;;4918227;29;20455;-81
2022/04/08 04:46:09;;;;;;;1.77;0.63;;;2.90;99.90;;;;;;4918770;29;20135;-82
2022/04/08 04:48:34;;;;;;;3.10;1.27;;;3.00;99.90;;;;;;4918194;29;20051;-75
2022/04/08 04:51:00;;;;;;;2.97;0.70;;;2.80;99.90;;;;;;4901687;29;20092;-71
2022/04/08 04:53:26;;;;;;;2.63;0.88;;;2.80;99.90;;;;;;4918244;29;20091;-70
2022/04/08 04:55:52;;;;;;;1.02;0.60;;;2.70;99.90;;;;;;4918193;29;20119;-70
2022/04/08 04:58:18;;;;;;;3.97;0.90;;;2.70;99.90;;;;;;4918256;29;20397;-70
2022/04/08 05:00:43;;;;;;;3.83;0.90;;;2.70;99.90;;;;;;4918129;29;20063;-69
2022/04/08 05:03:11;;;;;;;5.07;1.02;;;2.70;99.90;;;;;;4918203;29;20051;-69
2022/04/08 05:05:37;;;;;;;5.40;1.30;;;2.70;99.90;;;;;;4900489;29;20044;-70
2022/04/08 05:08:04;;;;;;;6.28;1.58;;;2.70;99.90;;;;;;4918000;29;20464;-71
2022/04/08 05:10:34;;;;;;;8.43;1.35;;;2.70;99.90;;;;;;4918244;29;20409;-68
2022/04/08 05:12:59;;;;;;;4.63;1.08;;;2.70;99.90;;;;;;4901070;29;20179;-72
2022/04/08 05:15:27;;;;;;;4.40;1.23;;;2.70;99.90;;;;;;4886572;29;20131;-67
2022/04/08 05:17:53;;;;;;;12.57;1.52;;;2.60;99.90;;;;;;4919009;29;20091;-70
2022/04/08 05:20:19;;;;;;;3.45;0.90;;;2.60;99.90;;;;;;4917972;29;20127;-69
2022/04/08 05:22:45;;;;;;;5.60;1.40;;;2.60;99.90;;;;;;4917643;29;20541;-69
2022/04/08 05:25:10;;;;;;;8.43;1.38;;;2.60;99.90;;;;;;4917454;29;20445;-70
2022/04/08 05:27:37;;;;;;;2.10;1.00;;;2.60;99.90;;;;;;4917803;29;20043;-68
2022/04/08 05:30:12;;;;;;;2.67;0.90;;;3.20;99.90;;;;;;4897898;29;20131;-69
2022/04/08 05:32:39;;;;;;;3.13;1.30;;;2.50;99.90;;;;;;4897015;29;20048;-73
2022/04/08 05:35:05;;;;;;;4.07;1.33;;;2.50;99.90;;;;;;4880091;29;20049;-69
2022/04/08 05:37:31;;;;;;;3.55;1.20;;;2.60;99.90;;;;;;4897299;29;20453;-70
2022/04/08 05:39:57;;;;;;;1.77;0.80;;;2.60;99.90;;;;;;4897358;29;20049;-76
2022/04/08 05:42:22;;;;;;;1.92;0.90;;;2.60;99.90;;;;;;4901371;29;20052;-69
2022/04/08 05:44:48;;;;;;;4.00;1.48;;;2.70;99.90;;;;;;4916235;29;20047;-70
2022/04/08 05:47:14;;;;;;;1.63;0.80;;;2.70;99.90;;;;;;4916488;29;20515;-72
2022/04/08 05:49:40;;;;;;;3.92;1.20;;;2.70;99.90;;;;;;4916596;29;20058;-74
2022/04/08 05:52:05;;;;;;;4.90;1.23;;;2.70;99.90;;;;;;4915539;29;20489;-74
2022/04/08 05:54:31;;;;;;;6.32;1.25;;;2.80;99.90;;;;;;4916270;29;20096;-74
2022/04/08 05:57:01;;;;;;;1.83;0.90;;;2.80;99.90;;;;;;4914836;29;20087;-74
2022/04/08 05:59:29;;;;;;;3.67;1.00;;;2.80;99.90;;;;;;4916139;29;20099;-74
2022/04/08 06:01:55;;;;;;;6.65;2.10;;;2.80;99.90;;;;;;4915959;29;20076;-75
2022/04/08 06:04:21;;;;;;;7.30;1.52;;;2.70;99.90;;;;;;4916301;29;20083;-75
2022/04/08 06:06:47;;;;;;;1.80;0.85;;;2.70;99.90;;;;;;4916261;29;20068;-74
2022/04/08 06:09:13;;;;;;;2.88;1.02;;;2.80;99.90;;;;;;4899015;29;20058;-72
2022/04/08 06:11:39;;;;;;;4.13;1.23;;;2.90;99.90;;;;;;4916945;29;20119;-75
2022/04/08 06:14:04;;;;;;;6.93;1.40;;;2.90;99.90;;;;;;4916509;29;20051;-71
2022/04/08 06:16:30;;;;;;;5.80;1.08;;;3.00;99.90;;;;;;4916947;29;20044;-70
2022/04/08 06:18:56;;;;;;;3.55;1.38;;;3.50;99.90;;;;;;4899988;29;20055;-71
2022/04/08 06:21:22;;;;;;;3.47;1.23;;;3.20;99.90;;;;;;4917053;29;20044;-71
2022/04/08 06:23:49;;;;;;;3.80;1.08;;;3.90;99.90;;;;;;4899167;29;20063;-74
2022/04/08 06:26:15;;;;;;;3.00;1.20;;;3.30;99.90;;;;;;4916404;29;20506;-72
2022/04/08 06:28:41;;;;;;;5.03;1.58;;;3.40;99.90;;;;;;4916535;29;20080;-72
2022/04/08 06:31:07;;;;;;;6.18;1.88;;;3.40;99.90;;;;;;4899678;29;20404;-71
2022/04/08 06:33:33;;;;;;;5.18;1.50;;;3.40;99.90;;;;;;4899909;29;20048;-71
2022/04/08 06:36:00;;;;;;;7.20;1.77;;;3.50;99.90;;;;;;4916696;29;20081;-72
2022/04/08 06:38:28;;;;;;;5.65;1.48;;;3.60;99.90;;;;;;4916881;29;20115;-71
2022/04/08 06:40:54;;;;;;;7.13;1.20;;;3.60;99.90;;;;;;4916033;29;20048;-73
2022/04/08 06:43:19;;;;;;;2.85;1.20;;;3.70;99.90;;;;;;4916303;29;20496;-71
2022/04/08 06:45:45;;;;;;;6.35;1.95;;;3.80;99.90;;;;;;4908282;29;20044;-69
2022/04/08 06:48:11;;;;;;;4.18;1.27;;;3.80;99.90;;;;;;4896332;29;20052;-72
2022/04/08 06:50:36;;;;;;;4.07;1.35;;;4.40;99.90;;;;;;4879834;29;20131;-70
2022/04/08 06:53:03;;;;;;;7.85;1.65;;;3.90;99.90;;;;;;4879736;29;20055;-70
2022/04/08 06:55:32;;;;;;;5.90;1.20;;;4.00;99.90;;;;;;4879090;29;20501;-71
2022/04/08 06:57:59;;;;;;;4.03;1.30;;;4.00;99.90;;;;;;4879535;29;20568;-72
2022/04/08 07:00:25;;;;;;;3.65;1.45;;;4.00;99.90;;;;;;4879675;29;20052;-71
2022/04/08 07:02:51;;;;;;;4.18;1.48;;;4.00;99.90;;;;;;4895663;29;20052;-71
2022/04/08 07:05:16;;;;;;;5.05;1.90;;;4.00;99.90;;;;;;4879453;29;20104;-71
2022/04/08 07:07:45;;;;;;;6.65;1.70;;;4.10;99.90;;;;;;4879997;29;20400;-74
2022/04/08 07:10:11;;;;;;;4.43;1.60;;;4.20;99.90;;;;;;4879397;29;20065;-74
2022/04/08 07:12:37;;;;;;;5.97;1.42;;;4.30;99.90;;;;;;4896562;29;20315;-70
2022/04/08 07:15:04;;;;;;;5.15;1.80;;;4.40;99.90;;;;;;4901356;29;20409;-69
2022/04/08 07:17:32;;;;;;;4.68;1.60;;;4.50;99.90;;;;;;4906446;29;20136;-74
2022/04/08 07:19:58;;;;;;;3.25;1.30;;;4.50;99.90;;;;;;4890925;29;20050;-74
2022/04/08 07:22:25;;;;;;;3.92;1.38;;;4.60;99.90;;;;;;4905527;29;20056;-70
2022/04/08 07:24:53;;;;;;;7.55;1.90;;;5.10;99.90;;;;;;4879944;29;20053;-70
2022/04/08 07:27:19;;;;;;;4.82;1.48;;;4.80;99.90;;;;;;4895958;29;20525;-70
2022/04/08 07:29:46;;;;;;;6.55;1.85;;;4.80;99.90;;;;;;4879113;29;20080;-71
2022/04/08 07:32:12;;;;;;;4.53;1.35;;;5.00;99.90;;;;;;4895985;29;20041;-69
2022/04/08 07:34:38;;;;;;;5.88;1.77;;;5.00;99.90;;;;;;4896318;29;20116;-68
2022/04/08 07:37:05;;;;;;;5.18;1.75;;;5.10;99.90;;;;;;4879283;29;20529;-70
2022/04/08 07:39:31;;;;;;;5.55;1.85;;;5.20;99.90;;;;;;4896472;29;20045;-69
2022/04/08 07:41:57;;;;;;;6.07;1.40;;;5.50;99.90;;;;;;4896223;29;20051;-69
2022/04/08 07:44:23;;;;;;;5.80;1.52;;;5.70;99.90;;;;;;4895313;29;20053;-68
2022/04/08 07:46:48;;;;;;;5.72;1.48;;;5.40;99.90;;;;;;4896352;29;20053;-70
2022/04/08 07:49:14;;;;;;;4.13;1.33;;;5.50;99.90;;;;;;4860923;29;20113;-70
2022/04/08 07:51:41;;;;;;;3.42;1.33;;;5.50;99.90;;;;;;4877400;29;20053;-69
2022/04/08 07:54:08;;;;;;;7.40;1.80;;;5.60;99.90;;;;;;4877356;29;20069;-75
2022/04/08 07:56:35;;;;;;;4.28;1.52;;;5.70;99.90;;;;;;4876300;29;20070;-70
2022/04/08 07:59:02;;;;;;;3.17;1.38;;;5.90;99.90;;;;;;4899520;29;20563;-69
2022/04/08 08:01:28;;;;;;;5.10;1.67;;;5.90;99.90;;;;;;4918016;29;20051;-73
2022/04/08 08:03:54;;;;;;;3.45;1.50;;;6.10;99.90;;;;;;4918586;29;20048;-71
2022/04/08 08:06:20;;;;;;;6.70;1.60;;;6.10;99.90;;;;;;4918005;29;20048;-68
2022/04/08 08:08:46;;;;;;;5.18;1.38;;;6.10;99.90;;;;;;4918383;29;20135;-69
2022/04/08 08:11:13;;;;;;;4.70;1.50;;;6.20;99.90;;;;;;4909539;29;20507;-69
2022/04/08 08:13:39;;;;;;;3.55;1.20;;;6.30;99.90;;;;;;4890991;29;20048;-71
2022/04/08 08:16:07;;;;;;;4.68;1.40;;;6.30;99.90;;;;;;4906587;29;20053;-70
2022/04/08 08:18:33;;;;;;;2.35;1.42;;;6.40;99.90;;;;;;4908659;29;20040;-69
2022/04/08 08:20:59;;;;;;;5.72;1.30;;;6.60;99.90;;;;;;4910832;29;20040;-72
2022/04/08 08:23:24;;;;;;;5.60;1.35;;;6.60;99.90;;;;;;4875485;29;20053;-76
2022/04/08 08:25:50;;;;;;;6.65;1.38;;;6.80;99.90;;;;;;4910222;29;20481;-71
2022/04/08 08:28:16;;;;;;;6.22;1.10;;;7.10;99.90;;;;;;4907008;29;20549;-75
2022/04/08 08:30:44;;;;;;;6.43;1.27;;;7.30;99.90;;;;;;4903953;29;20045;-71
2022/04/08 08:33:10;;;;;;;5.18;1.23;;;7.40;99.90;;;;;;4881362;29;20489;-73
2022/04/08 08:35:36;;;;;;;4.30;1.33;;;7.30;99.90;;;;;;4882103;29;20052;-71
2022/04/08 08:38:03;;;;;;;3.53;1.30;;;7.10;99.90;;;;;;4899027;29;20061;-76
2022/04/08 08:40:33;;;;;;;3.47;1.10;;;7.00;99.90;;;;;;4900521;29;20040;-74
2022/04/08 08:43:00;;;;;;;4.55;0.90;;;6.80;99.90;;;;;;4903212;29;20497;-73
2022/04/08 08:45:32;;;;;;;2.38;0.93;;;6.70;99.90;;;;;;4882727;29;20131;-74
2022/04/08 08:48:05;;;;;;;3.75;1.10;;;6.60;99.90;;;;;;4868165;29;20584;-74
2022/04/08 08:50:38;;;;;;;7.85;1.60;;;6.70;99.90;;;;;;4899847;29;20045;-74
2022/04/08 08:53:24;;;;;;;7.25;1.60;;;6.50;99.90;;;;;;4899499;29;20050;-74
2022/04/08 08:55:50;;;;;;;5.88;1.63;;;7.20;99.90;;;;;;4906526;29;20053;-79
2022/04/08 08:58:17;;;;;;;8.95;1.85;;;6.70;99.90;;;;;;4883657;29;20060;-71
2022/04/08 09:00:43;;;;;;;7.15;1.63;;;6.90;99.90;;;;;;4882459;29;20052;-71
2022/04/08 09:03:09;;;;;;;3.15;1.50;;;7.00;99.90;;;;;;4898808;29;20121;-72
2022/04/08 09:05:47;;;;;;;8.35;1.63;;;7.20;99.90;;;;;;4882034;29;20084;-72
2022/04/08 09:08:13;;;;;;;6.43;1.58;;;7.40;99.90;;;;;;4898725;29;20723;-74
2022/04/08 09:10:43;;;;;;;6.22;2.00;;;7.50;99.90;;;;;;4897636;29;20481;-74
2022/04/08 09:13:10;;;;;;;6.78;1.70;;;7.60;99.90;;;;;;4898221;29;20488;-73
2022/04/08 09:15:39;;;;;;;5.40;1.80;;;7.50;99.90;;;;;;4898539;29;20489;-72
2022/04/08 09:18:11;;;;;;;5.88;1.67;;;7.60;99.90;;;;;;4898142;29;20409;-73
2022/04/08 09:20:44;;;;;;;5.53;1.58;;;7.80;99.90;;;;;;4898356;29;20052;-77
2022/04/08 09:23:12;;;;;;;4.60;1.70;;;7.90;99.90;;;;;;4897980;29;20059;-72
2022/04/08 09:25:39;;;;;;;4.85;1.30;;;7.80;99.90;;;;;;4898697;29;20052;-71
2022/04/08 09:28:12;;;;;;;10.55;1.75;;;7.70;99.90;;;;;;4907283;29;20052;-72
2022/04/08 09:30:39;;;;;;;5.75;1.55;;;7.70;99.90;;;;;;4916955;29;20044;-71
2022/04/08 09:33:16;;;;;;;4.82;1.70;;;8.00;99.90;;;;;;4916877;29;20051;-70
2022/04/08 09:35:42;;;;;;;5.50;1.63;;;8.20;99.90;;;;;;4915828;29;20050;-70
2022/04/08 09:38:08;;;;;;;5.28;1.27;;;8.40;99.90;;;;;;4915590;29;20117;-73
2022/04/08 09:40:39;;;;;;;11.13;2.05;;;8.40;99.90;;;;;;4916781;29;20103;-71
2022/04/08 09:43:05;;;;;;;5.38;1.73;;;8.40;99.90;;;;;;4916147;29;20067;-71
2022/04/08 09:45:32;;;;;;;8.35;1.65;;;8.30;99.90;;;;;;4916422;29;20559;-72
2022/04/08 09:48:02;;;;;;;6.65;1.60;;;8.20;99.90;;;;;;4917775;29;20048;-72
2022/04/08 09:50:29;;;;;;;5.95;1.65;;;8.40;99.90;;;;;;4917425;29;20055;-72
2022/04/08 09:52:55;;;;;;;6.30;1.60;;;8.40;99.90;;;;;;4915727;29;20116;-73
2022/04/08 09:55:22;;;;;;;5.32;1.42;;;8.20;99.90;;;;;;4883561;29;20407;-73
2022/04/08 09:57:55;;;;;;;5.53;1.60;;;8.10;99.90;;;;;;4916874;29;20051;-73
2022/04/08 10:00:22;;;;;;;5.50;1.42;;;8.40;99.90;;;;;;4898837;29;20058;-72
2022/04/08 10:02:51;;;;;;;5.45;1.10;;;8.60;99.90;;;;;;4916256;29;20047;-72
2022/04/08 10:05:17;;;;;;;3.78;1.05;;;8.90;99.90;;;;;;4898948;29;20048;-72
2022/04/08 10:07:47;;;;;;;5.95;1.20;;;9.20;99.90;;;;;;4915845;29;20052;-72
2022/04/08 10:10:37;;;;;;;3.75;1.30;;;9.50;99.90;;;;;;4915812;29;20056;-72
2022/04/08 10:13:34;;;;;;;8.00;1.70;;;9.90;99.90;;;;;;4867590;29;20056;-73
2022/04/08 10:16:01;;;;;;;5.28;1.73;;;9.70;99.90;;;;;;4916065;29;20357;-73
2022/04/08 10:18:54;;;;;;;2.90;1.40;;;9.40;99.90;;;;;;4916288;29;20051;-72
2022/04/08 10:21:20;;;;;;;5.85;1.33;;;9.10;99.90;;;;;;4895443;29;20432;-72
2022/04/08 10:23:50;;;;;;;5.80;1.60;;;9.00;99.90;;;;;;4915335;29;20063;-71
2022/04/08 10:26:18;;;;;;;3.25;1.20;;;8.70;99.90;;;;;;4915259;29;20056;-72
2022/04/08 10:28:44;;;;;;;6.47;1.38;;;8.40;99.90;;;;;;4899050;29;20063;-72
2022/04/08 10:31:22;;;;;;;5.22;1.40;;;8.40;99.90;;;;;;4914050;29;20068;-73
2022/04/08 10:33:52;;;;;;;5.07;1.60;;;8.20;99.90;;;;;;4915883;29;20055;-71
2022/04/08 10:36:18;;;;;;;4.45;1.23;;;8.00;99.90;;;;;;4915495;29;20482;-76
2022/04/08 10:38:44;;;;;;;7.43;1.40;;;7.90;99.90;;;;;;4895680;29;20040;-75
2022/04/08 10:41:11;;;;;;;4.65;1.27;;;7.90;99.90;;;;;;4903282;29;20139;-72
2022/04/08 10:43:48;;;;;;;5.65;1.30;;;7.70;99.90;;;;;;4907261;29;20058;-78
2022/04/08 10:46:26;;;;;;;7.10;1.20;;;7.60;99.90;;;;;;4904716;29;20531;-78
2022/04/08 10:48:59;;;;;;;3.45;1.48;;;7.70;99.90;;;;;;4888519;29;20072;-70
2022/04/08 10:51:32;;;;;;;5.82;1.60;;;7.60;99.90;;;;;;4903641;29;20062;-70
2022/04/08 10:54:05;;;;;;;5.90;1.45;;;7.60;99.90;;;;;;4904641;29;20494;-73
2022/04/08 10:56:34;;;;;;;5.13;1.40;;;7.60;99.90;;;;;;4892881;29;20052;-80
2022/04/08 10:59:00;;;;;;;5.05;1.13;;;7.80;99.90;;;;;;4883214;29;20508;-75
2022/04/08 11:01:27;;;;;;;8.48;1.23;;;8.20;99.90;;;;;;4915671;29;20052;-76
2022/04/08 11:04:00;;;;;;;4.65;1.55;;;8.50;99.90;;;;;;4915406;29;20048;-75
2022/04/08 11:06:30;;;;;;;3.75;1.45;;;9.10;99.90;;;;;;4915562;29;20041;-75
2022/04/08 11:08:57;;;;;;;6.45;1.55;;;9.20;99.90;;;;;;4915766;29;20040;-75
2022/04/08 11:11:34;;;;;;;6.10;1.33;;;9.40;99.90;;;;;;4914780;29;20152;-74
2022/04/08 11:14:01;;;;;;;3.75;1.30;;;9.50;99.90;;;;;;4915679;29;20048;-75
2022/04/08 11:16:37;;;;;;;4.47;1.10;;;9.80;99.90;;;;;;4898605;29;20060;-72
2022/04/08 11:19:07;;;;;;;5.15;1.45;;;9.80;99.90;;;;;;4915544;29;20052;-72
2022/04/08 11:21:36;;;;;;;3.83;1.30;;;9.80;99.90;;;;;;4915504;29;20135;-75
2022/04/08 11:24:11;;;;;;;5.35;1.13;;;9.40;99.90;;;;;;4915789;29;20067;-74
2022/04/08 11:26:45;;;;;;;5.35;1.23;;;9.20;99.90;;;;;;4916250;29;20175;-76
2022/04/08 11:29:14;;;;;;;6.15;1.20;;;9.20;99.90;;;;;;4904837;29;20045;-73
2022/04/08 11:31:40;;;;;;;7.32;1.30;;;8.90;99.90;;;;;;4897214;29;20112;-76
2022/04/08 11:34:06;;;;;;;8.43;1.10;;;8.80;99.90;;;;;;4896754;29;20052;-74
2022/04/08 11:36:36;;;;;;;5.55;1.10;;;8.70;99.90;;;;;;4900039;29;20068;-77
2022/04/08 11:39:04;;;;;;;4.22;1.20;;;8.70;99.90;;;;;;4899802;29;20409;-73
2022/04/08 11:41:30;;;;;;;5.32;1.20;;;8.50;99.90;;;;;;4899554;29;20071;-74
2022/04/08 11:43:56;;;;;;;4.97;1.30;;;8.80;99.90;;;;;;4903855;29;20485;-73
2022/04/08 11:46:22;;;;;;;5.25;1.52;;;8.40;99.90;;;;;;4899626;29;20493;-71
2022/04/08 11:48:49;;;;;;;4.00;0.90;;;8.40;99.90;;;;;;4899061;29;20044;-74
2022/04/08 11:51:18;;;;;;;3.22;0.85;;;8.40;99.90;;;;;;4899227;29;20091;-75
2022/04/08 11:53:46;;;;;;;3.70;1.02;;;8.40;99.90;;;;;;4898363;29;20515;-76
2022/04/08 11:56:19;;;;;;;3.38;0.85;;;8.30;99.90;;;;;;4899554;29;20053;-75
2022/04/08 11:59:00;;;;;;;4.38;1.25;;;8.30;99.90;;;;;;4896506;29;20052;-75
2022/04/08 12:01:30;;;;;;;4.70;1.88;;;8.50;99.90;;;;;;4893985;29;20045;-76
2022/04/08 12:04:01;;;;;;;4.22;1.23;;;8.70;99.90;;;;;;4898378;29;20560;-76
2022/04/08 12:06:37;;;;;;;3.95;1.00;;;8.10;99.90;;;;;;4898325;29;20052;-74
2022/04/08 12:09:03;;;;;;;3.90;0.98;;;8.10;99.90;;;;;;4879390;29;20064;-70
2022/04/08 12:11:29;;;;;;;6.53;1.75;;;7.90;99.90;;;;;;4898299;29;20449;-78
2022/04/08 12:13:57;;;;;;;2.22;0.88;;;7.70;99.90;;;;;;4898578;29;20461;-73
2022/04/08 12:16:23;;;;;;;3.97;1.10;;;7.40;99.90;;;;;;4898272;29;20047;-74
2022/04/08 12:18:51;;;;;;;4.43;1.48;;;7.80;99.90;;;;;;4897252;29;20048;-71
2022/04/08 12:21:25;;;;;;;4.35;1.10;;;7.30;99.90;;;;;;4897841;29;20055;-73
2022/04/08 12:23:52;;;;;;;3.22;1.05;;;7.40;99.90;;;;;;4898098;29;20095;-73
2022/04/08 12:26:18;;;;;;;3.78;1.00;;;7.70;99.90;;;;;;4899068;29;20056;-74
2022/04/08 12:28:45;;;;;;;4.80;1.25;;;8.00;99.90;;;;;;4898401;29;20055;-78
2022/04/08 12:31:17;;;;;;;5.22;1.15;;;8.60;99.90;;;;;;4881685;29;20044;-73
2022/04/08 12:33:43;;;;;;;2.80;1.20;;;9.40;99.90;;;;;;4898296;29;20084;-73
2022/04/08 12:36:12;;;;;;;1.48;0.82;;;9.50;99.90;;;;;;4899337;29;20517;-77
2022/04/08 12:38:39;;;;;;;5.60;1.20;;;9.60;99.90;;;;;;4898758;29;20124;-77
2022/04/08 12:41:06;;;;;;;3.42;0.93;;;9.60;99.90;;;;;;4882114;29;20060;-77
2022/04/08 12:43:32;;;;;;;4.40;0.80;;;9.60;99.90;;;;;;4894959;29;20044;-75
2022/04/08 12:46:21;;;;;;;9.52;1.38;;;9.60;99.90;;;;;;4906884;29;20408;-74
2022/04/08 12:48:50;;;;;;;6.15;1.25;;;9.80;99.90;;;;;;4897967;29;20041;-72
2022/04/08 12:51:16;;;;;;;6.00;1.45;;;9.90;99.90;;;;;;4898872;29;20068;-76
2022/04/08 12:53:41;;;;;;;2.20;0.73;;;10.00;99.90;;;;;;4910047;29;20095;-77
2022/04/08 12:56:10;;;;;;;3.85;1.17;;;10.10;99.90;;;;;;4898621;29;20044;-75